createdAt,value
2023-08-28T00:00:07.775Z,100.00
2023-08-28T00:02:34.621Z,100.00
2023-08-28T00:05:01.543Z,100.00
2023-08-28T00:07:29.689Z,100.00
2023-08-28T00:09:56.557Z,100.00
2023-08-28T00:12:23.454Z,100.00
2023-08-28T00:14:50.387Z,100.00
2023-08-28T00:17:19.232Z,100.00
2023-08-28T00:19:46.184Z,100.00
2023-08-28T00:22:13.081Z,100.00
2023-08-28T00:24:39.986Z,100.00
2023-08-28T00:27:07.304Z,100.00
2023-08-28T00:29:34.207Z,100.00
2023-08-28T00:32:01.126Z,100.00
2023-08-28T00:34:28.220Z,100.00
2023-08-28T00:36:55.147Z,100.00
2023-08-28T00:39:22.031Z,100.00
2023-08-28T00:41:50.123Z,100.00
2023-08-28T00:44:17.013Z,100.00
2023-08-28T00:46:44.863Z,100.00
2023-08-28T00:49:12.719Z,100.00
2023-08-28T00:51:40.053Z,100.00
2023-08-28T00:54:09.178Z,100.00
2023-08-28T00:56:37.280Z,100.00
2023-08-28T00:59:04.725Z,100.00
2023-08-28T01:01:31.746Z,100.00
2023-08-28T01:03:58.743Z,100.00
2023-08-28T01:06:34.439Z,100.00
2023-08-28T01:09:14.921Z,100.00
2023-08-28T01:11:44.661Z,100.00
2023-08-28T01:14:13.027Z,100.00
2023-08-28T01:16:41.768Z,100.00
2023-08-28T01:19:14.718Z,100.00
2023-08-28T01:21:46.023Z,100.00
2023-08-28T01:24:14.260Z,100.00
2023-08-28T01:26:41.527Z,100.00
2023-08-28T01:29:08.425Z,100.00
2023-08-28T01:31:35.362Z,100.00
2023-08-28T01:34:02.297Z,100.00
2023-08-28T01:36:32.474Z,100.00
2023-08-28T01:39:00.869Z,100.00
2023-08-28T01:41:28.624Z,100.00
2023-08-28T01:43:58.838Z,100.00
2023-08-28T01:46:27.143Z,100.00
2023-08-28T01:48:54.960Z,100.00
2023-08-28T01:51:22.266Z,100.00
2023-08-28T01:53:49.451Z,100.00
2023-08-28T01:56:21.114Z,100.00
2023-08-28T01:58:51.341Z,100.00
2023-08-28T02:01:19.849Z,100.00
2023-08-28T02:03:47.481Z,100.00
2023-08-28T02:06:14.687Z,100.00
2023-08-28T02:08:41.613Z,100.00
2023-08-28T02:11:08.550Z,100.00
2023-08-28T02:13:35.409Z,100.00
2023-08-28T02:16:03.428Z,100.00
2023-08-28T02:18:31.404Z,100.00
2023-08-28T02:20:58.397Z,100.00
2023-08-28T02:23:27.543Z,100.00
2023-08-28T02:25:54.864Z,100.00
2023-08-28T02:28:22.127Z,100.00
2023-08-28T02:30:49.275Z,100.00
2023-08-28T02:33:16.225Z,100.00
2023-08-28T02:35:44.037Z,100.00
2023-08-28T02:38:11.769Z,100.00
2023-08-28T02:40:39.344Z,100.00
2023-08-28T02:43:07.082Z,100.00
2023-08-28T02:45:34.993Z,100.00
2023-08-28T02:48:02.042Z,100.00
2023-08-28T02:50:29.640Z,100.00
2023-08-28T02:52:56.572Z,100.00
2023-08-28T02:55:23.717Z,100.00
2023-08-28T02:57:50.874Z,100.00
2023-08-28T03:00:19.391Z,100.00
2023-08-28T03:02:47.078Z,100.00
2023-08-28T03:05:14.120Z,100.00
2023-08-28T03:07:41.081Z,100.00
2023-08-28T03:10:08.902Z,100.00
2023-08-28T03:12:36.159Z,100.00
2023-08-28T03:15:03.412Z,100.00
2023-08-28T03:17:31.115Z,100.00
2023-08-28T03:19:58.148Z,100.00
2023-08-28T03:22:25.067Z,100.00
2023-08-28T03:24:53.481Z,100.00
2023-08-28T03:27:21.419Z,100.00
2023-08-28T03:29:48.408Z,100.00
2023-08-28T03:32:15.336Z,100.00
2023-08-28T03:34:42.230Z,100.00
2023-08-28T03:37:09.213Z,100.00
2023-08-28T03:39:36.695Z,100.00
2023-08-28T03:42:04.021Z,100.00
2023-08-28T03:44:30.987Z,100.00
2023-08-28T03:46:57.907Z,100.00
2023-08-28T03:49:26.472Z,100.00
2023-08-28T03:51:56.141Z,100.00
2023-08-28T03:54:23.068Z,100.00
2023-08-28T03:56:49.960Z,100.00
2023-08-28T03:59:16.969Z,100.00
2023-08-28T04:01:44.579Z,100.00
2023-08-28T04:04:11.499Z,100.00
2023-08-28T04:06:38.466Z,100.00
2023-08-28T04:09:07.039Z,100.00
2023-08-28T04:11:33.981Z,100.00
2023-08-28T04:14:02.831Z,100.00
2023-08-28T04:16:29.742Z,100.00
2023-08-28T04:18:56.744Z,100.00
2023-08-28T04:21:23.667Z,100.00
2023-08-28T04:23:50.804Z,100.00
2023-08-28T04:26:17.702Z,100.00
2023-08-28T04:28:44.591Z,100.00
2023-08-28T04:31:12.668Z,100.00
2023-08-28T04:33:39.628Z,100.00
2023-08-28T04:36:06.996Z,100.00
2023-08-28T04:38:33.927Z,100.00
2023-08-28T04:41:00.787Z,100.00
2023-08-28T04:43:27.703Z,100.00
2023-08-28T04:45:54.703Z,100.00
2023-08-28T04:48:21.600Z,100.00
2023-08-28T04:50:48.614Z,100.00
2023-08-28T04:53:16.610Z,100.00
2023-08-28T04:55:43.653Z,100.00
2023-08-28T04:58:10.648Z,100.00
2023-08-28T05:00:37.672Z,98.40
2023-08-28T05:03:05.255Z,97.53
2023-08-28T05:05:32.425Z,91.83
2023-08-28T05:07:59.801Z,92.13
2023-08-28T05:10:26.687Z,90.89
2023-08-28T05:12:53.629Z,93.96
2023-08-28T05:15:20.601Z,97.23
2023-08-28T05:17:49.393Z,96.92
2023-08-28T05:20:16.446Z,95.43
2023-08-28T05:22:43.406Z,92.95
2023-08-28T05:25:10.357Z,87.76
2023-08-28T05:27:37.294Z,83.22
2023-08-28T05:30:04.474Z,85.01
2023-08-28T05:32:31.869Z,88.56
2023-08-28T05:34:59.561Z,83.25
2023-08-28T05:37:27.138Z,83.49
2023-08-28T05:39:54.367Z,85.26
2023-08-28T05:42:21.397Z,83.36
2023-08-28T05:44:48.607Z,82.60
2023-08-28T05:47:15.945Z,79.16
2023-08-28T05:49:42.831Z,80.92
2023-08-28T05:52:10.383Z,82.20
2023-08-28T05:54:37.296Z,83.33
2023-08-28T05:57:04.414Z,83.41
2023-08-28T05:59:31.422Z,82.14
2023-08-28T06:01:58.947Z,80.29
2023-08-28T06:04:26.018Z,76.51
2023-08-28T06:06:53.127Z,71.42
2023-08-28T06:09:21.901Z,70.47
2023-08-28T06:11:48.829Z,71.30
2023-08-28T06:14:15.743Z,69.82
2023-08-28T06:16:43.858Z,70.14
2023-08-28T06:19:11.000Z,72.73
2023-08-28T06:21:38.318Z,69.70
2023-08-28T06:24:05.334Z,70.47
2023-08-28T06:26:34.643Z,72.04
2023-08-28T06:29:04.245Z,73.65
2023-08-28T06:31:34.736Z,75.04
2023-08-28T06:34:01.689Z,71.03
2023-08-28T06:36:29.770Z,71.72
2023-08-28T06:38:56.713Z,69.32
2023-08-28T06:41:23.731Z,70.50
2023-08-28T06:43:50.666Z,71.35
2023-08-28T06:46:17.623Z,70.90
2023-08-28T06:48:45.878Z,67.56
2023-08-28T06:51:12.816Z,66.84
2023-08-28T06:53:39.914Z,67.49
2023-08-28T06:56:06.925Z,66.81
2023-08-28T06:58:33.854Z,67.61
2023-08-28T07:01:00.812Z,68.84
2023-08-28T07:03:27.881Z,67.81
2023-08-28T07:05:57.518Z,68.60
2023-08-28T07:08:24.929Z,67.08
2023-08-28T07:10:51.865Z,64.20
2023-08-28T07:13:18.923Z,63.97
2023-08-28T07:15:45.883Z,64.38
2023-08-28T07:18:15.200Z,62.19
2023-08-28T07:20:42.528Z,60.42
2023-08-28T07:23:09.512Z,65.06
2023-08-28T07:25:36.520Z,66.42
2023-08-28T07:28:03.762Z,64.06
2023-08-28T07:30:30.687Z,60.41
2023-08-28T07:32:57.709Z,60.43
2023-08-28T07:35:24.719Z,60.37
2023-08-28T07:37:51.654Z,65.12
2023-08-28T07:40:18.599Z,61.18
2023-08-28T07:42:46.177Z,63.65
2023-08-28T07:45:13.064Z,63.84
2023-08-28T07:47:40.527Z,63.92
2023-08-28T07:50:08.745Z,61.34
2023-08-28T07:52:35.650Z,58.47
2023-08-28T07:55:03.585Z,61.59
2023-08-28T07:57:33.063Z,60.72
2023-08-28T08:00:00.045Z,58.76
2023-08-28T08:02:27.036Z,59.25
2023-08-28T08:04:53.931Z,62.99
2023-08-28T08:07:20.808Z,63.54
2023-08-28T08:09:47.820Z,62.08
2023-08-28T08:12:14.778Z,60.66
2023-08-28T08:14:41.660Z,59.44
2023-08-28T08:17:08.621Z,61.86
2023-08-28T08:19:35.498Z,60.87
2023-08-28T08:22:06.084Z,57.90
2023-08-28T08:24:35.443Z,57.34
2023-08-28T08:27:02.328Z,59.26
2023-08-28T08:29:29.297Z,61.56
2023-08-28T08:31:56.287Z,59.91
2023-08-28T08:34:23.200Z,59.28
2023-08-28T08:36:50.088Z,59.71
2023-08-28T08:39:17.267Z,59.96
2023-08-28T08:41:44.252Z,58.31
2023-08-28T08:44:11.220Z,57.70
2023-08-28T08:46:38.389Z,55.29
2023-08-28T08:49:06.945Z,56.20
2023-08-28T08:51:35.849Z,54.46
2023-08-28T08:54:27.063Z,54.51
2023-08-28T08:56:55.633Z,55.97
2023-08-28T08:59:22.906Z,56.13
2023-08-28T09:01:50.410Z,53.50
2023-08-28T09:04:17.747Z,56.13
2023-08-28T09:06:45.071Z,60.92
2023-08-28T09:09:13.063Z,62.20
2023-08-28T09:11:41.502Z,64.24
2023-08-28T09:14:08.451Z,63.88
2023-08-28T09:16:36.062Z,64.13
2023-08-28T09:19:03.474Z,61.79
2023-08-28T09:21:38.280Z,59.45
2023-08-28T09:24:08.908Z,63.96
2023-08-28T09:26:36.828Z,61.29
2023-08-28T09:29:05.227Z,61.36
2023-08-28T09:31:33.221Z,60.14
2023-08-28T09:34:07.654Z,59.09
2023-08-28T09:36:37.220Z,57.97
2023-08-28T09:39:05.967Z,59.00
2023-08-28T09:41:43.164Z,57.60
2023-08-28T09:44:10.657Z,54.79
2023-08-28T09:46:38.148Z,56.59
2023-08-28T09:49:05.815Z,57.33
2023-08-28T09:51:42.446Z,55.64
2023-08-28T09:54:13.025Z,57.61
2023-08-28T09:56:40.287Z,59.27
2023-08-28T09:59:10.590Z,60.08
2023-08-28T10:01:38.131Z,60.99
2023-08-28T10:04:06.419Z,63.81
2023-08-28T10:06:36.049Z,62.65
2023-08-28T10:09:07.028Z,61.44
2023-08-28T10:11:38.000Z,60.94
2023-08-28T10:14:05.503Z,63.34
2023-08-28T10:16:37.382Z,62.29
2023-08-28T10:19:04.297Z,64.47
2023-08-28T10:21:31.903Z,61.82
2023-08-28T10:23:58.862Z,61.97
2023-08-28T10:26:26.788Z,62.88
2023-08-28T10:28:54.192Z,62.01
2023-08-28T10:31:21.174Z,60.86
2023-08-28T10:33:48.917Z,60.57
2023-08-28T10:36:33.510Z,61.07
2023-08-28T10:39:04.805Z,57.03
2023-08-28T10:41:32.293Z,57.61
2023-08-28T10:44:00.530Z,60.80
2023-08-28T10:46:29.854Z,65.46
2023-08-28T10:49:01.073Z,66.35
2023-08-28T10:51:39.129Z,66.18
2023-08-28T10:54:15.038Z,61.81
2023-08-28T10:56:54.054Z,61.02
2023-08-28T10:59:22.795Z,60.64
2023-08-28T11:01:57.245Z,61.40
2023-08-28T11:04:34.813Z,60.98
2023-08-28T11:07:01.786Z,64.22
2023-08-28T11:09:31.318Z,63.41
2023-08-28T11:12:01.597Z,61.70
2023-08-28T11:14:56.063Z,60.43
2023-08-28T11:17:25.527Z,60.53
2023-08-28T11:19:56.630Z,60.78
2023-08-28T11:22:30.804Z,60.26
2023-08-28T11:24:58.211Z,59.40
2023-08-28T11:27:51.505Z,60.94
2023-08-28T11:30:20.976Z,58.52
2023-08-28T11:32:52.589Z,59.43
2023-08-28T11:35:21.193Z,60.66
2023-08-28T11:37:57.303Z,58.78
2023-08-28T11:40:25.489Z,59.43
2023-08-28T11:43:04.884Z,56.81
2023-08-28T11:45:32.262Z,58.43
2023-08-28T11:48:02.825Z,57.91
2023-08-28T11:50:29.951Z,56.89
2023-08-28T11:52:56.977Z,56.21
2023-08-28T11:55:24.117Z,56.82
2023-08-28T11:57:54.367Z,56.71
2023-08-28T12:00:22.376Z,55.78
2023-08-28T12:02:50.141Z,56.26
2023-08-28T12:05:18.109Z,57.93
2023-08-28T12:07:46.170Z,56.60
2023-08-28T12:10:15.193Z,55.51
2023-08-28T12:12:42.225Z,55.17
2023-08-28T12:15:12.595Z,56.29
2023-08-28T12:17:40.350Z,57.72
2023-08-28T12:20:17.535Z,58.80
2023-08-28T12:22:45.055Z,57.75
2023-08-28T12:25:12.721Z,57.44
2023-08-28T12:27:39.828Z,56.82
2023-08-28T12:30:08.008Z,55.34
2023-08-28T12:32:35.157Z,54.18
2023-08-28T12:35:14.290Z,56.36
2023-08-28T12:37:42.079Z,55.52
2023-08-28T12:40:13.109Z,54.45
2023-08-28T12:42:40.230Z,53.59
2023-08-28T12:45:07.489Z,53.54
2023-08-28T12:47:34.534Z,54.64
2023-08-28T12:50:01.782Z,55.32
2023-08-28T12:52:31.513Z,55.46
2023-08-28T12:55:00.162Z,56.49
2023-08-28T12:57:27.083Z,58.95
2023-08-28T12:59:53.982Z,57.28
2023-08-28T13:02:20.878Z,57.99
2023-08-28T13:04:49.052Z,57.23
2023-08-28T13:07:18.627Z,57.38
2023-08-28T13:09:47.449Z,57.11
2023-08-28T13:12:14.400Z,54.60
2023-08-28T13:14:41.311Z,54.67
2023-08-28T13:17:08.218Z,54.01
2023-08-28T13:19:35.202Z,53.46
2023-08-28T13:22:02.251Z,52.97
2023-08-28T13:24:42.137Z,54.58
2023-08-28T13:27:11.120Z,54.00
2023-08-28T13:29:38.164Z,53.68
2023-08-28T13:32:07.125Z,55.25
2023-08-28T13:34:34.158Z,56.28
2023-08-28T13:37:06.743Z,56.00
2023-08-28T13:39:34.388Z,56.64
2023-08-28T13:42:01.364Z,55.52
2023-08-28T13:44:31.101Z,57.30
2023-08-28T13:46:58.537Z,56.84
2023-08-28T13:49:25.456Z,56.51
2023-08-28T13:51:52.328Z,55.05
2023-08-28T13:54:19.838Z,55.08
2023-08-28T13:56:46.930Z,54.92
2023-08-28T13:59:13.876Z,54.02
2023-08-28T14:01:42.482Z,54.55
2023-08-28T14:04:09.982Z,54.94
2023-08-28T14:06:36.921Z,55.04
2023-08-28T14:09:05.261Z,54.30
2023-08-28T14:11:32.220Z,54.00
2023-08-28T14:13:59.196Z,54.48
2023-08-28T14:16:26.205Z,54.45
2023-08-28T14:18:53.085Z,53.54
2023-08-28T14:21:20.020Z,53.57
2023-08-28T14:23:47.042Z,52.92
2023-08-28T14:26:16.978Z,52.76
2023-08-28T14:28:43.979Z,53.93
2023-08-28T14:31:10.924Z,55.78
2023-08-28T14:33:39.225Z,54.97
2023-08-28T14:36:06.167Z,54.84
2023-08-28T14:38:33.126Z,54.58
2023-08-28T14:41:00.067Z,54.18
2023-08-28T14:43:27.021Z,55.34
2023-08-28T14:45:53.929Z,53.39
2023-08-28T14:48:21.279Z,54.11
2023-08-28T14:50:48.225Z,54.15
2023-08-28T14:53:15.127Z,53.05
2023-08-28T14:55:42.118Z,54.24
2023-08-28T14:58:09.106Z,54.24
2023-08-28T15:00:36.233Z,54.33
2023-08-28T15:03:05.350Z,54.06
2023-08-28T15:05:33.554Z,55.08
2023-08-28T15:08:15.126Z,55.18
2023-08-28T15:10:43.876Z,56.18
2023-08-28T15:13:10.816Z,54.54
2023-08-28T15:15:41.235Z,55.06
2023-08-28T15:18:08.366Z,55.67
2023-08-28T15:20:35.309Z,57.27
2023-08-28T15:23:02.544Z,56.69
2023-08-28T15:25:29.662Z,55.77
2023-08-28T15:27:56.624Z,57.28
2023-08-28T15:30:23.546Z,56.54
2023-08-28T15:32:50.727Z,56.50
2023-08-28T15:35:17.717Z,56.38
2023-08-28T15:37:45.816Z,56.61
2023-08-28T15:40:12.785Z,57.71
2023-08-28T15:42:39.925Z,57.75
2023-08-28T15:45:07.036Z,57.75
2023-08-28T15:47:35.382Z,57.77
2023-08-28T15:50:04.388Z,58.10
2023-08-28T15:52:31.396Z,58.04
2023-08-28T15:54:58.794Z,57.65
2023-08-28T15:57:26.084Z,59.31
2023-08-28T15:59:53.014Z,59.13
2023-08-28T16:02:19.864Z,59.41
2023-08-28T16:04:46.766Z,61.71
2023-08-28T16:07:14.927Z,61.10
2023-08-28T16:09:41.901Z,61.39
2023-08-28T16:12:09.037Z,60.86
2023-08-28T16:14:35.969Z,61.05
2023-08-28T16:17:05.722Z,59.83
2023-08-28T16:19:32.586Z,59.84
2023-08-28T16:21:59.709Z,59.91
2023-08-28T16:24:26.902Z,60.41
2023-08-28T16:26:53.818Z,60.45
2023-08-28T16:29:20.752Z,61.36
2023-08-28T16:31:47.727Z,61.40
2023-08-28T16:34:14.630Z,62.40
2023-08-28T16:36:43.474Z,62.08
2023-08-28T16:39:10.515Z,63.58
2023-08-28T16:41:37.843Z,61.49
2023-08-28T16:44:05.468Z,62.13
2023-08-28T16:46:32.381Z,62.43
2023-08-28T16:48:59.511Z,62.71
2023-08-28T16:51:26.401Z,63.26
2023-08-28T16:53:53.668Z,64.10
2023-08-28T16:56:20.756Z,65.06
2023-08-28T16:58:47.719Z,65.27
2023-08-28T17:01:14.639Z,65.29
2023-08-28T17:03:41.631Z,66.43
2023-08-28T17:06:08.609Z,66.46
2023-08-28T17:08:35.495Z,67.85
2023-08-28T17:11:02.501Z,67.37
2023-08-28T17:13:29.382Z,67.10
2023-08-28T17:15:57.342Z,67.66
2023-08-28T17:18:24.362Z,68.31
2023-08-28T17:20:51.316Z,69.35
2023-08-28T17:23:18.291Z,69.27
2023-08-28T17:25:45.295Z,70.36
2023-08-28T17:28:13.137Z,70.94
2023-08-28T17:30:40.139Z,72.08
2023-08-28T17:33:07.439Z,72.67
2023-08-28T17:35:35.166Z,72.81
2023-08-28T17:38:02.186Z,72.68
2023-08-28T17:40:29.194Z,71.90
2023-08-28T17:42:56.100Z,71.76
2023-08-28T17:45:22.996Z,72.42
2023-08-28T17:47:50.089Z,71.81
2023-08-28T17:50:17.222Z,71.03
2023-08-28T17:52:44.136Z,70.97
2023-08-28T17:55:11.670Z,72.37
2023-08-28T17:57:38.828Z,70.50
2023-08-28T18:00:06.170Z,72.72
2023-08-28T18:02:57.628Z,71.28
2023-08-28T18:05:26.610Z,70.32
2023-08-28T18:07:53.529Z,70.17
2023-08-28T18:10:20.444Z,69.79
2023-08-28T18:12:49.572Z,69.33
2023-08-28T18:15:18.509Z,70.82
2023-08-28T18:17:46.204Z,71.33
2023-08-28T18:20:13.177Z,73.85
2023-08-28T18:22:40.176Z,74.60
2023-08-28T18:25:07.261Z,73.96
2023-08-28T18:27:38.317Z,73.44
2023-08-28T18:30:10.082Z,74.08
2023-08-28T18:32:37.074Z,75.42
2023-08-28T18:35:04.473Z,75.98
2023-08-28T18:37:31.383Z,76.15
2023-08-28T18:39:58.268Z,75.36
2023-08-28T18:42:25.690Z,77.59
2023-08-28T18:44:52.642Z,74.12
2023-08-28T18:47:19.558Z,73.91
2023-08-28T18:49:49.124Z,75.01
2023-08-28T18:52:16.003Z,78.21
2023-08-28T18:54:42.931Z,79.22
2023-08-28T18:57:09.859Z,80.65
2023-08-28T18:59:38.826Z,81.38
2023-08-28T19:02:05.861Z,82.04
2023-08-28T19:04:32.749Z,82.49
2023-08-28T19:06:59.824Z,80.88
2023-08-28T19:09:26.730Z,80.96
2023-08-28T19:11:53.627Z,80.21
2023-08-28T19:14:20.552Z,76.68
2023-08-28T19:16:47.429Z,77.78
2023-08-28T19:19:14.375Z,77.38
2023-08-28T19:21:41.290Z,77.24
2023-08-28T19:24:08.332Z,77.86
2023-08-28T19:26:35.221Z,78.43
2023-08-28T19:29:02.800Z,78.52
2023-08-28T19:31:29.785Z,79.58
2023-08-28T19:33:56.755Z,79.45
2023-08-28T19:36:24.534Z,78.64
2023-08-28T19:38:51.427Z,79.19
2023-08-28T19:41:18.315Z,81.03
2023-08-28T19:43:45.293Z,81.93
2023-08-28T19:46:14.957Z,82.53
2023-08-28T19:48:42.034Z,83.07
2023-08-28T19:51:09.732Z,82.27
2023-08-28T19:53:36.695Z,83.78
2023-08-28T19:56:03.920Z,82.82
2023-08-28T19:58:31.443Z,83.24
2023-08-28T20:00:58.479Z,86.40
2023-08-28T20:03:25.684Z,87.88
2023-08-28T20:05:52.770Z,86.74
2023-08-28T20:08:19.722Z,88.56
2023-08-28T20:10:46.617Z,88.67
2023-08-28T20:13:13.579Z,87.00
2023-08-28T20:15:47.636Z,89.18
2023-08-28T20:18:14.518Z,87.79
2023-08-28T20:20:42.957Z,88.06
2023-08-28T20:23:11.901Z,88.75
2023-08-28T20:25:38.782Z,87.01
2023-08-28T20:28:06.064Z,89.88
2023-08-28T20:30:33.216Z,94.33
2023-08-28T20:33:01.564Z,93.00
2023-08-28T20:35:28.568Z,93.28
2023-08-28T20:37:55.483Z,95.07
2023-08-28T20:40:22.385Z,96.90
2023-08-28T20:42:49.256Z,98.42
2023-08-28T20:45:16.251Z,99.22
2023-08-28T20:47:43.496Z,97.92
2023-08-28T20:50:11.556Z,97.16
2023-08-28T20:52:38.951Z,97.31
2023-08-28T20:55:08.157Z,100.00
2023-08-28T20:57:35.179Z,99.20
2023-08-28T21:00:02.071Z,99.68
2023-08-28T21:02:33.262Z,98.81
2023-08-28T21:05:00.204Z,100.00
2023-08-28T21:07:27.108Z,100.00
2023-08-28T21:09:54.078Z,100.00
2023-08-28T21:12:21.780Z,100.00
2023-08-28T21:14:48.623Z,100.00
2023-08-28T21:17:16.844Z,100.00
2023-08-28T21:19:44.349Z,100.00
2023-08-28T21:22:11.204Z,100.00
2023-08-28T21:24:38.084Z,100.00
2023-08-28T21:27:05.076Z,100.00
2023-08-28T21:29:31.944Z,100.00
2023-08-28T21:32:00.567Z,100.00
2023-08-28T21:34:27.435Z,100.00
2023-08-28T21:36:54.409Z,100.00
2023-08-28T21:39:22.963Z,100.00
2023-08-28T21:41:49.848Z,100.00
2023-08-28T21:44:16.811Z,100.00
2023-08-28T21:46:43.812Z,100.00
2023-08-28T21:49:29.304Z,100.00
2023-08-28T21:52:14.299Z,100.00
2023-08-28T21:55:01.804Z,100.00
2023-08-28T21:57:46.953Z,100.00
2023-08-28T22:00:35.452Z,100.00
2023-08-28T22:03:21.101Z,100.00
2023-08-28T22:06:06.898Z,100.00
2023-08-28T22:08:35.091Z,100.00
2023-08-28T22:11:22.033Z,100.00
2023-08-28T22:13:57.450Z,100.00
2023-08-28T22:16:24.464Z,100.00
2023-08-28T22:18:51.738Z,100.00
2023-08-28T22:21:20.596Z,100.00
2023-08-28T22:23:47.505Z,100.00
2023-08-28T22:26:16.181Z,100.00
2023-08-28T22:28:43.257Z,100.00
2023-08-28T22:31:10.272Z,100.00
2023-08-28T22:33:37.152Z,100.00
2023-08-28T22:36:05.100Z,100.00
2023-08-28T22:38:32.011Z,100.00
2023-08-28T22:40:58.877Z,100.00
2023-08-28T22:43:25.778Z,100.00
2023-08-28T22:45:52.718Z,100.00
2023-08-28T22:48:19.747Z,100.00
2023-08-28T22:50:46.935Z,100.00
2023-08-28T22:53:13.822Z,100.00
2023-08-28T22:55:40.766Z,100.00
2023-08-28T22:58:09.656Z,100.00
2023-08-28T23:00:36.561Z,100.00
2023-08-28T23:03:03.572Z,100.00
2023-08-28T23:05:30.625Z,100.00
2023-08-28T23:07:57.647Z,100.00
2023-08-28T23:10:24.568Z,100.00
2023-08-28T23:12:51.496Z,100.00
2023-08-28T23:15:18.485Z,100.00
2023-08-28T23:17:45.509Z,100.00
2023-08-28T23:20:14.102Z,100.00
2023-08-28T23:22:41.605Z,100.00
2023-08-28T23:25:08.767Z,100.00
2023-08-28T23:27:36.913Z,100.00
2023-08-28T23:30:04.561Z,100.00
2023-08-28T23:32:32.644Z,100.00
2023-08-28T23:35:00.623Z,100.00
2023-08-28T23:37:27.836Z,100.00
2023-08-28T23:39:54.733Z,100.00
2023-08-28T23:42:21.790Z,100.00
2023-08-28T23:44:48.659Z,100.00
2023-08-28T23:47:15.574Z,100.00
2023-08-28T23:49:42.709Z,100.00
2023-08-28T23:52:09.645Z,100.00
2023-08-28T23:54:36.503Z,100.00
2023-08-28T23:57:03.440Z,100.00
2023-08-28T23:59:30.368Z,100.00
